ADDS METAR Data INFO
IDs: Format: Raw Decoded Include TAF

Data at: 1632 UTC 23 Nov 2017

METAR for:KJAX (Jacksonville Intl, FL, US)
Text:KJAX 231556Z 04011KT 2SM -RA BR BKN007 OVC070 17/17 A2997 RMK AO2 SFC VIS 3 SLP150 P0008 T01720167 $
Temperature: 17.2°C ( 63°F)
Dewpoint: 16.7°C ( 62°F) [RH = 97%]
Pressure (altimeter):29.97 inches Hg (1015.0 mb) [Sea level pressure: 1015.0 mb]
Winds:from the NE (40 degrees) at 13 MPH (11 knots; 5.7 m/s)
Visibility: 2.00 sm ( 3.22 km)
Ceiling:700 feet AGL
Clouds: broken clouds at 700 feet AGL, overcast cloud deck at 7000 feet AGL
Weather:-RA BR (light rain, mist)
QC Flag:SOME DATA ABOVE MAY BE INACCURATE!!!"$" is an indication the sensor requires maintenance.

METAR for:KCRG (Jacksonville/Executi, FL, US)
Text:KCRG 231553Z 03010KT 5SM -RA BR OVC007 18/17 A2997 RMK AO2 SLP148 P0005 T01830167 $
Temperature: 18.3°C ( 65°F)
Dewpoint: 16.7°C ( 62°F) [RH = 90%]
Pressure (altimeter):29.97 inches Hg (1015.0 mb) [Sea level pressure: 1014.8 mb]
Winds:from the NNE (30 degrees) at 12 MPH (10 knots; 5.1 m/s)
Visibility: 5 sm ( 8 km)
Ceiling:700 feet AGL
Clouds: overcast cloud deck at 700 feet AGL
Weather:-RA BR (light rain, mist)
QC Flag:SOME DATA ABOVE MAY BE INACCURATE!!!"$" is an indication the sensor requires maintenance.

METAR for:KNIP (Jacksonville (NAS), FL, US)
Text:KNIP 231612Z AUTO 03015KT 5SM RA BR BKN008 BKN048 OVC080 18/17 A2994 RMK AO2 P0002 T01780172 $
Temperature: 17.8°C ( 64°F)
Dewpoint: 17.2°C ( 63°F) [RH = 96%]
Pressure (altimeter):29.94 inches Hg (1014.0 mb)
Winds:from the NNE (30 degrees) at 17 MPH (15 knots; 7.7 m/s)
Visibility: 5 sm ( 8 km)
Ceiling:800 feet AGL
Clouds: broken clouds at 800 feet AGL, broken clouds at 4800 feet AGL, overcast cloud deck at 8000 feet AGL
Weather:RA BR (moderate rain, mist)
QC Flag:automated observation with no human augmentation; SOME DATA ABOVE MAY BE INACCURATE!!!"$" is an indication the sensor requires maintenance.

METAR for:KNRB (Mayport (NS), FL, US)
Text:KNRB 231616Z AUTO 03018G25KT 3SM RA SCT009 BKN025 OVC080 A2995 RMK AO2 P0002 $
Pressure (altimeter):29.95 inches Hg (1014.3 mb)
Winds:from the NNE (30 degrees) at 21 MPH (18 knots; 9.3 m/s) gusting to 29 MPH (25 knots; 12.9 m/s)
Visibility: 3 sm ( 5 km)
Ceiling:2500 feet AGL
Clouds: scattered clouds at 900 feet AGL, broken clouds at 2500 feet AGL, overcast cloud deck at 8000 feet AGL
Weather:RA (moderate rain)
QC Flag:automated observation with no human augmentation; SOME DATA ABOVE MAY BE INACCURATE!!!"$" is an indication the sensor requires maintenance.

METAR for:KFHB (Fernandina Beach Mun, FL, US)
Text:No data found

METAR for:KVQQ (Jacksonville/Cecil A, FL, US)
Text:KVQQ 231550Z 03016KT 3SM RA OVC006 17/17 A2995
Temperature: 17.0°C ( 63°F)
Dewpoint: 17.0°C ( 63°F) [RH = 100%]
Pressure (altimeter):29.95 inches Hg (1014.3 mb)
Winds:from the NNE (30 degrees) at 18 MPH (16 knots; 8.2 m/s)
Visibility: 3 sm ( 5 km)
Ceiling:600 feet AGL
Clouds: overcast cloud deck at 600 feet AGL
Weather:RA (moderate rain)